Terminal Aerodrome Forecast
Issued by NWS Hastings, NE

Home | Current Version | Previous Version | Text Only | Print | Product List | Glossary On
Versions: 1 2 3 4 5 6 7 8 9 10 11 12 13 14 15 16 17 18
000
FTUS45 KGID 212112 AAA
TAFEAR
TAF AMD
KEAR 212112Z 2121/2218 VRB04KT P6SM FEW030
     FM212300 VRB04KT P6SM SCT250
     FM220700 32009KT P6SM SCT200
     FM221500 33014KT P6SM SCT200
      AMD LTD TO CLD VIS AND WIND=

USA.gov is the U.S. government's official web portal to all federal, state and local government web resources and services.